Time;durP1;ratioP1;P1;durP2;ratioP2;P2;SDS_P1;SDS_P2;PMS_P1;PMS_P2;Temp;Humidity;BMP_temperature;BMP_pressure;BME280_temperature;BME280_humidity;BME280_pressure;Samples;Min_cycle;Max_cycle;Signal;HPM_P1;HPM_P2
2022/07/08 00:00:23;;;;;;;2.65;0.50;;;;;;;17.35;100.00;99730.13;1687482;82;21060;-53
2022/07/08 00:02:49;;;;;;;0.60;0.42;;;;;;;17.38;100.00;99738.56;1691886;82;21155;-53
2022/07/08 00:05:16;;;;;;;4.47;0.85;;;;;;;17.40;100.00;99749.72;1692159;82;21084;-53
2022/07/08 00:07:42;;;;;;;4.05;0.60;;;;;;;17.44;100.00;99757.66;1688880;82;21092;-53
2022/07/08 00:10:09;;;;;;;0.68;0.50;;;;;;;17.45;100.00;99762.95;1689634;82;21155;-53
2022/07/08 00:12:35;;;;;;;1.85;0.50;;;;;;;17.48;100.00;99768.66;1690832;82;21131;-53
2022/07/08 00:15:03;;;;;;;0.68;0.60;;;;;;;17.48;100.00;99772.75;1686873;82;21669;-53
2022/07/08 00:17:30;;;;;;;0.88;0.40;;;;;;;17.48;100.00;99774.11;1690154;82;21040;-52
2022/07/08 00:19:56;;;;;;;2.27;0.53;;;;;;;17.50;100.00;99770.78;1689785;82;21541;-53
2022/07/08 00:22:23;;;;;;;1.10;0.60;;;;;;;17.51;100.00;99772.52;1691787;82;21060;-52
2022/07/08 00:24:49;;;;;;;2.10;0.60;;;;;;;17.52;100.00;99774.27;1686448;82;21083;-53
2022/07/08 00:27:16;;;;;;;1.22;0.45;;;;;;;17.54;100.00;99774.98;1688444;82;21741;-53
2022/07/08 00:29:42;;;;;;;1.05;0.60;;;;;;;17.55;100.00;99782.17;1687447;82;21571;-53
2022/07/08 00:32:09;;;;;;;6.53;0.60;;;;;;;17.57;100.00;99779.72;1688389;82;21183;-53
2022/07/08 00:34:36;;;;;;;1.45;0.50;;;;;;;17.59;100.00;99770.95;1689515;82;21083;-53
2022/07/08 00:37:03;;;;;;;1.80;0.95;;;;;;;17.60;100.00;99778.63;1690952;82;21042;-53
2022/07/08 00:39:30;;;;;;;1.55;0.50;;;;;;;17.57;100.00;99781.08;1690306;82;21163;-53
2022/07/08 00:41:56;;;;;;;0.88;0.50;;;;;;;17.55;100.00;99785.77;1691295;82;21100;-53
2022/07/08 00:44:23;;;;;;;1.10;0.47;;;;;;;17.57;100.00;99787.02;1689028;82;21617;-53
2022/07/08 00:46:49;;;;;;;1.40;0.50;;;;;;;17.57;100.00;99791.97;1689234;82;21167;-53
2022/07/08 00:49:16;;;;;;;1.90;0.72;;;;;;;17.60;100.00;99790.38;1688634;82;21382;-53
2022/07/08 00:51:43;;;;;;;1.70;0.60;;;;;;;17.63;100.00;99794.73;1691172;82;21139;-53
2022/07/08 00:54:09;;;;;;;0.82;0.50;;;;;;;17.67;100.00;99793.53;1689706;82;22479;-53
2022/07/08 00:56:37;;;;;;;2.87;0.60;;;;;;;17.69;100.00;99785.59;1689230;82;21060;-54
2022/07/08 00:59:04;;;;;;;4.37;0.62;;;;;;;17.72;100.00;99778.56;1686765;82;21167;-53
2022/07/08 01:01:30;;;;;;;0.60;0.50;;;;;;;17.72;100.00;99779.93;1693430;82;21031;-53
2022/07/08 01:03:57;;;;;;;1.35;0.50;;;;;;;17.68;100.00;99774.36;1688674;82;23291;-53
2022/07/08 01:06:23;;;;;;;3.05;0.45;;;;;;;17.65;100.00;99766.91;1686935;82;21639;-53
2022/07/08 01:08:51;;;;;;;0.80;0.50;;;;;;;17.61;100.00;99771.67;1691677;82;21060;-53
2022/07/08 01:11:17;;;;;;;0.60;0.50;;;;;;;17.60;100.00;99774.05;1691645;82;21688;-53
2022/07/08 01:13:44;;;;;;;3.47;0.50;;;;;;;17.59;100.00;99775.53;1689053;82;21028;-53
2022/07/08 01:16:10;;;;;;;0.78;0.60;;;;;;;17.62;100.00;99779.38;1686690;82;21799;-53
2022/07/08 01:18:37;;;;;;;1.05;0.72;;;;;;;17.61;100.00;99782.56;1692817;82;21107;-53
2022/07/08 01:21:04;;;;;;;1.17;0.60;;;;;;;17.63;100.00;99774.32;1689733;82;21727;-52
2022/07/08 01:23:31;;;;;;;1.45;0.80;;;;;;;17.63;100.00;99775.69;1687122;82;21119;-52
2022/07/08 01:25:57;;;;;;;5.33;0.88;;;;;;;17.64;100.00;99774.20;1692483;82;21146;-52
2022/07/08 01:28:23;;;;;;;0.80;0.72;;;;;;;17.62;100.00;99767.14;1690011;82;21647;-53
2022/07/08 01:30:50;;;;;;;1.65;0.90;;;;;;;17.59;100.00;99766.00;1691240;82;21064;-52
2022/07/08 01:33:17;;;;;;;1.90;0.85;;;;;;;17.55;100.00;99762.63;1689573;82;21546;-53
2022/07/08 01:35:44;;;;;;;3.00;0.90;;;;;;;17.53;100.00;99764.59;1689961;82;21381;-52
2022/07/08 01:38:10;;;;;;;4.08;1.00;;;;;;;17.54;100.00;99768.19;1689335;82;21659;-53
2022/07/08 01:40:37;;;;;;;1.62;0.80;;;;;;;17.56;100.00;99769.81;1688078;82;22171;-52
2022/07/08 01:43:06;;;;;;;1.60;1.00;;;;;;;17.60;100.00;99775.41;1691716;82;21072;-53
2022/07/08 01:45:32;;;;;;;0.80;0.80;;;;;;;17.65;100.00;99783.25;1695221;82;20984;-53
2022/07/08 01:47:59;;;;;;;1.17;1.00;;;;;;;17.67;100.00;99778.56;1691535;82;21004;-53
2022/07/08 01:50:25;;;;;;;0.90;0.80;;;;;;;17.68;100.00;99774.85;1691720;82;21047;-53
2022/07/08 01:52:51;;;;;;;2.45;1.10;;;;;;;17.70;100.00;99771.00;1686900;82;21773;-52
2022/07/08 01:55:18;;;;;;;1.07;0.90;;;;;;;17.68;100.00;99755.31;1691209;82;20909;-52
2022/07/08 01:57:44;;;;;;;1.22;0.95;;;;;;;17.63;100.00;99749.83;1687921;82;21000;-52
2022/07/08 02:00:12;;;;;;;2.40;1.10;;;;;;;17.56;100.00;99743.95;1687725;82;21132;-53
2022/07/08 02:02:38;;;;;;;1.45;0.90;;;;;;;17.55;100.00;99745.44;1689524;82;20992;-53
2022/07/08 02:05:06;;;;;;;2.42;0.78;;;;;;;17.53;100.00;99755.07;1694586;82;21113;-51
2022/07/08 02:07:33;;;;;;;1.85;0.80;;;;;;;17.56;100.00;99771.67;1688594;82;20905;-51
2022/07/08 02:10:02;;;;;;;2.90;0.80;;;;;;;17.60;100.00;99785.43;1690524;82;21368;-51
2022/07/08 02:12:29;;;;;;;7.00;1.07;;;;;;;17.62;100.00;99786.19;1693688;82;21135;-52
2022/07/08 02:15:01;;;;;;;1.00;0.80;;;;;;;17.65;100.00;99785.97;1696262;82;21154;-52
2022/07/08 02:17:31;;;;;;;1.67;0.80;;;;;;;17.67;100.00;99778.56;1687314;82;21129;-52
2022/07/08 02:19:58;;;;;;;2.72;0.75;;;;;;;17.67;100.00;99773.11;1690780;82;21139;-52
2022/07/08 02:22:24;;;;;;;1.10;0.80;;;;;;;17.67;100.00;99773.98;1691829;82;21143;-53
2022/07/08 02:24:51;;;;;;;1.65;0.80;;;;;;;17.70;100.00;99779.66;1692817;82;20972;-53
2022/07/08 02:27:18;;;;;;;2.22;0.70;;;;;;;17.72;100.00;99785.86;1693996;82;21103;-53
2022/07/08 02:29:45;;;;;;;1.55;0.72;;;;;;;17.72;100.00;99786.73;1689339;82;21128;-53
2022/07/08 02:32:11;;;;;;;1.77;0.80;;;;;;;17.71;100.00;99778.68;1691478;82;21131;-52
2022/07/08 02:34:38;;;;;;;2.00;0.70;;;;;;;17.68;100.00;99772.13;1688185;82;21502;-53
2022/07/08 02:37:05;;;;;;;1.00;0.50;;;;;;;17.63;100.00;99771.59;1689014;82;21707;-53
2022/07/08 02:39:32;;;;;;;1.05;0.40;;;;;;;17.60;100.00;99772.69;1687986;82;22320;-52
2022/07/08 02:41:58;;;;;;;1.32;0.40;;;;;;;17.59;100.00;99772.80;1687319;82;21792;-52
2022/07/08 02:44:25;;;;;;;0.50;0.50;;;;;;;17.59;100.00;99774.16;1688443;82;21124;-52
2022/07/08 02:46:51;;;;;;;0.72;0.50;;;;;;;17.60;100.00;99779.98;1688546;82;21370;-52
2022/07/08 02:49:18;;;;;;;0.75;0.40;;;;;;;17.62;100.00;99776.66;1689400;82;21155;-52
2022/07/08 02:51:44;;;;;;;1.85;0.40;;;;;;;17.63;100.00;99771.59;1687788;82;21078;-52
2022/07/08 02:54:10;;;;;;;0.30;0.30;;;;;;;17.64;100.00;99768.77;1687993;82;21146;-52
2022/07/08 02:56:37;;;;;;;1.05;0.40;;;;;;;17.64;100.00;99763.33;1694668;82;21186;-53
2022/07/08 02:59:04;;;;;;;1.30;0.50;;;;;;;17.63;100.00;99776.55;1690916;82;21636;-52
2022/07/08 03:01:31;;;;;;;0.60;0.40;;;;;;;17.61;100.00;99770.80;1689927;82;21838;-52
2022/07/08 03:03:58;;;;;;;0.62;0.40;;;;;;;17.57;100.00;99772.05;1687308;82;21110;-52
2022/07/08 03:06:24;;;;;;;1.07;0.40;;;;;;;17.54;100.00;99778.58;1690119;82;21234;-52
2022/07/08 03:08:52;;;;;;;0.45;0.30;;;;;;;17.54;100.00;99779.08;1686767;82;21099;-52
2022/07/08 03:11:19;;;;;;;1.02;0.30;;;;;;;17.54;100.00;99773.63;1693506;82;21146;-52
2022/07/08 03:13:46;;;;;;;3.35;0.30;;;;;;;17.54;100.00;99781.30;1685567;82;21126;-52
2022/07/08 03:16:13;;;;;;;1.25;0.35;;;;;;;17.56;100.00;99783.42;1687138;82;21681;-52
2022/07/08 03:18:40;;;;;;;0.57;0.30;;;;;;;17.58;100.00;99790.98;1741603;79;21782;-52
2022/07/08 03:21:09;;;;;;;0.33;0.33;;;;;;;17.62;100.00;99794.36;1738704;80;21054;-52
2022/07/08 03:23:36;;;;;;;2.12;0.30;;;;;;;17.63;100.00;99792.02;1739953;79;21082;-52
2022/07/08 03:26:03;;;;;;;1.90;0.40;;;;;;;17.65;100.00;99787.33;1739209;79;21066;-52
2022/07/08 03:28:29;;;;;;;1.25;0.30;;;;;;;17.66;100.00;99786.34;1737727;80;21078;-52
2022/07/08 03:30:57;;;;;;;0.33;0.23;;;;;;;17.65;100.00;99786.84;1743381;79;21137;-52
2022/07/08 03:33:23;;;;;;;0.62;0.33;;;;;;;17.66;100.00;99783.62;1741017;79;21046;-52
2022/07/08 03:35:50;;;;;;;0.50;0.30;;;;;;;17.67;100.00;99797.13;1739603;79;21091;-52
2022/07/08 03:38:17;;;;;;;1.27;0.30;;;;;;;17.68;100.00;99796.63;1739399;79;21039;-52
2022/07/08 03:43:28;;;;;;;0.30;0.20;;;;;;;17.67;100.00;99790.31;1744279;80;21211;-52
2022/07/08 03:45:55;;;;;;;0.40;0.20;;;;;;;17.66;100.00;99798.59;1745547;79;21939;-53
2022/07/08 03:48:21;;;;;;;0.98;0.20;;;;;;;17.64;100.00;99795.12;1743994;79;21015;-52
2022/07/08 03:52:01;;;;;;;0.42;0.30;;;;;;;17.66;100.00;99791.30;1787696;78;28065;-53
2022/07/08 03:54:28;;;;;;;0.90;0.30;;;;;;;17.64;100.00;99791.91;1746910;80;21063;-53
2022/07/08 03:56:55;;;;;;;0.68;0.25;;;;;;;17.65;100.00;99795.00;1743186;80;21235;-53
2022/07/08 03:59:21;;;;;;;0.40;0.30;;;;;;;17.68;100.00;99787.11;1726829;80;20951;-53
2022/07/08 04:01:48;;;;;;;0.40;0.30;;;;;;;17.68;100.00;99789.34;1729152;80;21069;-52
2022/07/08 04:04:14;;;;;;;0.40;0.20;;;;;;;17.70;100.00;99789.19;1733007;80;20935;-53
2022/07/08 04:06:41;;;;;;;0.40;0.20;;;;;;;17.70;100.00;99787.83;1680216;83;21587;-52
2022/07/08 04:09:07;;;;;;;0.40;0.20;;;;;;;17.73;100.00;99795.77;1691294;82;21782;-53
2022/07/08 04:11:34;;;;;;;0.40;0.30;;;;;;;17.76;100.00;99795.55;1691081;82;21141;-53
2022/07/08 04:14:02;;;;;;;0.40;0.30;;;;;;;17.80;100.00;99797.03;1689425;82;21287;-53
2022/07/08 04:16:28;;;;;;;0.55;0.33;;;;;;;17.84;100.00;99797.67;1691985;82;21097;-54
2022/07/08 04:18:56;;;;;;;0.72;0.30;;;;;;;17.87;100.00;99798.28;1689553;82;21096;-53
2022/07/08 04:21:23;;;;;;;0.37;0.30;;;;;;;17.89;100.00;99796.32;1667846;82;21483;-54
2022/07/08 04:23:49;;;;;;;0.60;0.30;;;;;;;17.92;100.00;99796.59;1687220;82;21101;-53
2022/07/08 04:26:16;;;;;;;0.57;0.30;;;;;;;17.93;100.00;99795.11;1690157;82;21113;-53
2022/07/08 04:28:44;;;;;;;3.10;0.30;;;;;;;17.94;100.00;99795.98;1689282;82;21612;-53
2022/07/08 04:31:10;;;;;;;0.35;0.30;;;;;;;17.97;100.00;99802.04;1704689;81;21532;-54
2022/07/08 04:33:37;;;;;;;0.45;0.30;;;;;;;17.99;100.00;99800.07;1686320;83;21161;-53
2022/07/08 04:36:06;;;;;;;1.45;0.30;;;;;;;18.03;100.00;99800.19;1680335;83;21133;-53
2022/07/08 04:38:32;;;;;;;0.30;0.30;;;;;;;18.07;100.00;99800.34;1686027;83;20957;-53
2022/07/08 04:40:59;;;;;;;0.20;0.20;;;;;;;18.11;100.00;99797.77;1684708;83;20978;-52
2022/07/08 04:43:25;;;;;;;0.20;0.20;;;;;;;18.13;100.00;99801.70;1686972;83;20986;-53
2022/07/08 04:45:52;;;;;;;0.40;0.20;;;;;;;18.15;100.00;99796.52;1688237;83;21147;-52
2022/07/08 04:48:18;;;;;;;0.50;0.40;;;;;;;18.18;100.00;99794.55;1678212;83;21447;-53
2022/07/08 04:50:45;;;;;;;0.95;0.30;;;;;;;18.19;100.00;99797.16;1681142;83;20987;-55
2022/07/08 04:53:12;;;;;;;0.57;0.37;;;;;;;18.18;100.00;99800.86;1695579;82;20896;-55
2022/07/08 04:55:38;;;;;;;0.40;0.30;;;;;;;18.20;100.00;99798.03;1724535;81;20919;-53
2022/07/08 04:58:05;;;;;;;1.55;0.30;;;;;;;18.22;100.00;99800.98;1726360;81;21407;-54
2022/07/08 05:00:32;;;;;;;1.47;0.20;;;;;;;18.23;100.00;99804.08;1722209;81;21494;-54
2022/07/08 05:02:59;;;;;;;0.30;0.30;;;;;;;18.26;100.00;99802.98;1729706;81;20986;-54
2022/07/08 05:05:26;;;;;;;1.50;0.20;;;;;;;18.30;100.00;99804.45;1724181;81;21109;-55
2022/07/08 05:07:53;;;;;;;1.55;0.37;;;;;;;18.33;100.00;99805.09;1722535;81;20974;-53
2022/07/08 05:10:23;;;;;;;0.40;0.33;;;;;;;18.39;100.00;99807.81;1721089;81;21089;-53
2022/07/08 05:12:51;;;;;;;0.40;0.25;;;;;;;18.43;100.00;99808.83;1724043;81;21073;-52
2022/07/08 05:15:19;;;;;;;0.82;0.30;;;;;;;18.45;100.00;99808.22;1719180;81;21325;-53
2022/07/08 05:17:47;;;;;;;0.60;0.30;;;;;;;18.46;100.00;99805.84;1718025;81;21096;-52
2022/07/08 05:20:14;;;;;;;0.40;0.30;;;;;;;18.51;100.00;99806.85;1719206;81;21339;-53
2022/07/08 05:22:40;;;;;;;0.50;0.40;;;;;;;18.56;100.00;99803.74;1721861;81;21153;-53
2022/07/08 05:25:08;;;;;;;0.40;0.30;;;;;;;18.59;100.00;99811.23;1728034;81;21027;-53
2022/07/08 05:27:35;;;;;;;0.25;0.25;;;;;;;18.66;100.00;99807.01;1724809;81;21087;-53
2022/07/08 05:30:03;;;;;;;0.50;0.30;;;;;;;18.71;100.00;99812.98;1717317;81;21086;-53
2022/07/08 05:32:30;;;;;;;2.80;0.35;;;;;;;18.77;100.00;99811.11;1722478;81;21069;-53
2022/07/08 05:34:56;;;;;;;0.68;0.30;;;;;;;18.85;100.00;99818.17;1726927;81;21093;-53
2022/07/08 05:37:23;;;;;;;1.27;0.33;;;;;;;18.93;100.00;99818.03;1719273;81;21125;-54
2022/07/08 05:39:49;;;;;;;0.82;0.35;;;;;;;18.97;100.00;99818.17;1722535;82;21047;-54
2022/07/08 05:42:16;;;;;;;0.50;0.30;;;;;;;18.99;100.00;99817.03;1722424;81;21105;-53
2022/07/08 05:44:43;;;;;;;0.90;0.33;;;;;;;19.02;100.00;99819.52;1721987;81;21797;-54
2022/07/08 05:47:13;;;;;;;2.00;0.30;;;;;;;19.08;100.00;99827.69;1722464;81;21301;-54
2022/07/08 05:49:39;;;;;;;1.20;0.30;;;;;;;19.13;100.00;99828.20;1722324;81;21018;-55
2022/07/08 05:52:08;;;;;;;0.72;0.40;;;;;;;19.20;100.00;99822.59;1720837;81;21064;-54
2022/07/08 05:54:36;;;;;;;1.35;0.50;;;;;;;19.26;100.00;99829.77;1715304;81;21081;-54
2022/07/08 05:57:04;;;;;;;0.40;0.30;;;;;;;19.29;100.00;99825.94;1715860;81;21749;-54
2022/07/08 05:59:31;;;;;;;2.67;0.95;;;;;;;19.27;100.00;99829.28;1717305;81;23678;-54
2022/07/08 06:01:57;;;;;;;0.88;0.20;;;;;;;19.28;100.00;99833.25;1664968;84;22190;-54
2022/07/08 06:04:24;;;;;;;0.40;0.40;;;;;;;19.29;100.00;99835.48;1717425;81;21047;-54
2022/07/08 06:06:50;;;;;;;0.30;0.30;;;;;;;19.29;100.00;99839.58;1720640;81;21086;-55
2022/07/08 06:09:17;;;;;;;0.20;0.20;;;;;;;19.30;100.00;99832.26;1717870;81;21061;-54
2022/07/08 06:11:44;;;;;;;0.82;0.20;;;;;;;19.33;100.00;99832.85;1716153;81;21158;-54
2022/07/08 06:14:10;;;;;;;3.47;0.30;;;;;;;19.36;100.00;99831.73;1713667;81;21086;-54
2022/07/08 06:16:38;;;;;;;1.65;0.20;;;;;;;19.38;100.00;99820.20;1718461;81;21030;-54
2022/07/08 06:19:05;;;;;;;1.77;0.20;;;;;;;19.36;100.00;99812.63;1711607;81;21505;-55
2022/07/08 06:21:31;;;;;;;0.28;0.20;;;;;;;19.33;100.00;99803.33;1715198;81;21105;-55
2022/07/08 06:23:58;;;;;;;0.25;0.20;;;;;;;19.28;100.00;99807.33;1720698;81;21211;-55
2022/07/08 06:26:25;;;;;;;0.40;0.30;;;;;;;19.24;100.00;99805.83;1717041;81;21018;-55
2022/07/08 06:28:51;;;;;;;0.45;0.30;;;;;;;19.21;100.00;99799.28;1722264;81;21002;-54
2022/07/08 06:31:18;;;;;;;0.20;0.13;;;;;;;19.19;100.00;99798.53;1719296;81;21212;-55
2022/07/08 06:33:45;;;;;;;0.20;0.20;;;;;;;19.16;100.00;99786.50;1714232;81;21103;-55
2022/07/08 06:36:11;;;;;;;0.40;0.20;;;;;;;19.14;100.00;99782.19;1716649;81;21249;-54
2022/07/08 06:38:38;;;;;;;1.82;0.20;;;;;;;19.13;100.00;99772.27;1713739;81;22469;-54
2022/07/08 06:41:04;;;;;;;0.20;0.10;;;;;;;19.13;100.00;99770.91;1715733;81;21641;-54
2022/07/08 06:43:31;;;;;;;1.15;0.20;;;;;;;19.11;100.00;99780.57;1719700;81;21157;-55
2022/07/08 06:45:57;;;;;;;0.78;0.20;;;;;;;19.07;100.00;99777.71;1720690;81;21796;-54
2022/07/08 06:48:25;;;;;;;2.72;0.20;;;;;;;19.05;100.00;99778.86;1718903;81;21875;-55
2022/07/08 06:50:51;;;;;;;0.15;0.13;;;;;;;19.01;100.00;99774.14;1721072;81;21088;-54
2022/07/08 06:53:18;;;;;;;1.70;0.20;;;;;;;18.96;100.00;99775.52;1720990;81;21130;-55
2022/07/08 06:55:44;;;;;;;0.28;0.20;;;;;;;18.90;100.00;99779.59;1715312;81;21043;-52
2022/07/08 06:58:11;;;;;;;0.45;0.20;;;;;;;18.83;100.00;99774.28;1717911;81;22239;-50
2022/07/08 07:00:38;;;;;;;0.20;0.20;;;;;;;18.78;100.00;99776.03;1722460;81;21145;-52
2022/07/08 07:03:04;;;;;;;0.57;0.30;;;;;;;18.73;100.00;99765.98;1716492;81;21089;-54
2022/07/08 07:05:31;;;;;;;2.33;0.30;;;;;;;18.67;100.00;99750.63;1720471;81;21094;-51
2022/07/08 07:07:57;;;;;;;1.00;0.47;;;;;;;18.58;100.00;99729.56;1718986;81;20998;-51
2022/07/08 07:10:23;;;;;;;0.37;0.28;;;;;;;18.50;100.00;99711.08;1721561;81;21063;-51
2022/07/08 07:12:50;;;;;;;0.85;0.30;;;;;;;18.42;100.00;99693.12;1688236;83;22069;-53
2022/07/08 07:15:17;;;;;;;4.50;0.40;;;;;;;18.36;100.00;99702.67;1722896;81;21109;-53
2022/07/08 07:17:44;;;;;;;0.30;0.20;;;;;;;18.36;100.00;99716.80;1720507;81;21090;-51
2022/07/08 07:20:11;;;;;;;0.33;0.20;;;;;;;18.35;100.00;99735.49;1715229;81;21738;-54
2022/07/08 07:22:37;;;;;;;0.25;0.20;;;;;;;18.36;100.00;99742.19;1723536;81;20931;-54
2022/07/08 07:25:05;;;;;;;0.40;0.30;;;;;;;18.41;100.00;99748.62;1715497;81;21221;-53
2022/07/08 07:27:31;;;;;;;0.33;0.30;;;;;;;18.44;100.00;99742.92;1719254;81;20907;-54
2022/07/08 07:29:58;;;;;;;3.58;0.47;;;;;;;18.43;100.00;99731.66;1720815;81;20940;-52
2022/07/08 07:32:24;;;;;;;0.20;0.17;;;;;;;18.44;100.00;99738.84;1722309;81;20891;-53
2022/07/08 07:34:51;;;;;;;0.72;0.20;;;;;;;18.47;100.00;99759.02;1719548;81;20937;-54
2022/07/08 07:37:17;;;;;;;0.20;0.20;;;;;;;18.51;100.00;99770.92;1717069;81;21030;-53
2022/07/08 07:39:43;;;;;;;0.30;0.20;;;;;;;18.58;100.00;99767.23;1713218;81;20871;-53
2022/07/08 07:42:10;;;;;;;0.60;0.20;;;;;;;18.66;100.00;99763.39;1718930;81;20950;-54
2022/07/08 07:44:37;;;;;;;0.50;0.20;;;;;;;18.68;100.00;99766.87;1669812;84;20990;-54
2022/07/08 07:47:04;;;;;;;0.30;0.23;;;;;;;18.71;100.00;99769.84;1723076;81;20927;-54
2022/07/08 07:49:31;;;;;;;1.22;0.20;;;;;;;18.72;100.00;99777.88;1723600;81;21092;-53
2022/07/08 07:51:57;;;;;;;0.50;0.20;;;;;;;18.75;100.00;99768.09;1716026;81;20890;-52
2022/07/08 07:54:24;;;;;;;2.05;0.20;;;;;;;18.76;100.00;99769.83;1718285;81;20946;-53
2022/07/08 07:56:50;;;;;;;0.20;0.10;;;;;;;18.80;100.00;99774.52;1711998;81;21443;-54
2022/07/08 07:59:17;;;;;;;0.30;0.10;;;;;;;18.81;100.00;99777.63;1709446;81;21245;-52
2022/07/08 08:01:43;;;;;;;0.62;0.28;;;;;;;18.80;100.00;99772.66;1709230;81;21090;-53
2022/07/08 08:04:10;;;;;;;0.20;0.20;;;;;;;18.80;100.00;99775.39;1708629;81;20894;-53
2022/07/08 08:06:36;;;;;;;0.68;0.20;;;;;;;18.80;100.00;99772.66;1710811;81;21426;-53
2022/07/08 08:09:03;;;;;;;0.45;0.15;;;;;;;18.79;100.00;99765.50;1709736;81;21676;-53
2022/07/08 08:11:29;;;;;;;0.90;0.20;;;;;;;18.80;100.00;99769.06;1711973;81;21104;-52
2022/07/08 08:13:56;;;;;;;0.20;0.13;;;;;;;18.82;100.00;99767.95;1708421;81;21150;-53
2022/07/08 08:16:23;;;;;;;1.95;0.15;;;;;;;18.89;100.00;99770.55;1709730;81;21080;-52
2022/07/08 08:18:50;;;;;;;3.20;0.65;;;;;;;18.95;100.00;99773.78;1708274;81;21047;-53
2022/07/08 08:21:16;;;;;;;0.40;0.13;;;;;;;19.00;100.00;99776.98;1707911;81;21056;-56
2022/07/08 08:23:42;;;;;;;0.40;0.20;;;;;;;19.06;100.00;99781.43;1707132;81;21044;-53
2022/07/08 08:26:10;;;;;;;0.30;0.13;;;;;;;19.09;100.00;99778.45;1708596;81;21099;-53
2022/07/08 08:28:37;;;;;;;3.30;0.25;;;;;;;19.13;100.00;99779.95;1708962;81;21056;-53
2022/07/08 08:31:04;;;;;;;0.13;0.13;;;;;;;19.19;100.00;99782.66;1707168;81;21070;-53
2022/07/08 08:33:30;;;;;;;0.20;0.20;;;;;;;19.23;100.00;99780.02;1709632;81;21112;-54
2022/07/08 08:35:58;;;;;;;1.22;0.15;;;;;;;19.31;100.00;99780.25;1710695;81;21127;-52
2022/07/08 08:38:24;;;;;;;0.33;0.33;;;;;;;19.41;100.00;99777.62;1710235;81;21136;-53
2022/07/08 08:40:54;;;;;;;0.20;0.20;;;;;;;19.49;100.00;99781.47;1711514;81;21064;-52
2022/07/08 08:43:21;;;;;;;0.20;0.10;;;;;;;19.55;100.00;99768.69;1708175;81;21550;-52
2022/07/08 08:45:47;;;;;;;0.20;0.15;;;;;;;19.62;100.00;99778.09;1708496;81;21352;-53
2022/07/08 08:48:14;;;;;;;0.68;0.20;;;;;;;19.72;100.00;99781.40;1711760;81;21666;-53
2022/07/08 08:50:56;;;;;;;0.10;0.10;;;;;;;19.78;100.00;99761.25;1713103;81;21141;-54
2022/07/08 08:53:30;;;;;;;1.00;0.20;;;;;;;19.84;100.00;99759.84;1723582;81;21035;-53
2022/07/08 08:56:00;;;;;;;1.75;0.20;;;;;;;19.87;100.00;99756.36;1722244;81;21094;-54
2022/07/08 08:58:26;;;;;;;0.30;0.10;;;;;;;19.92;100.00;99754.58;1691208;82;21092;-53
2022/07/08 09:00:53;;;;;;;1.45;0.10;;;;;;;19.97;100.00;99758.67;1671706;83;21603;-55
2022/07/08 09:03:19;;;;;;;0.53;0.10;;;;;;;20.08;100.00;99765.91;1656930;84;22290;-54
2022/07/08 09:05:47;;;;;;;0.35;0.20;;;;;;;20.15;100.00;99749.37;1721690;81;21483;-54
2022/07/08 09:08:14;;;;;;;0.37;0.10;;;;;;;20.27;100.00;99746.03;1727535;81;21066;-53
2022/07/08 09:10:41;;;;;;;2.20;0.20;;;;;;;20.41;100.00;99760.77;1724074;81;21520;-53
2022/07/08 09:13:12;;;;;;;0.23;0.15;;;;;;;20.56;100.00;99759.89;1723365;81;21070;-55
2022/07/08 09:15:45;;;;;;;1.77;0.15;;;;;;;20.65;100.00;99753.10;1720432;81;21877;-54
2022/07/08 09:18:20;;;;;;;0.40;0.10;;;;;;;20.71;100.00;99761.25;1718249;81;21113;-55
2022/07/08 09:20:50;;;;;;;0.10;0.10;;;;;;;20.77;100.00;99752.48;1715185;81;22363;-54
2022/07/08 09:23:33;;;;;;;0.20;0.10;;;;;;;20.82;100.00;99750.72;1725471;81;21047;-54
2022/07/08 09:26:02;;;;;;;1.40;0.20;;;;;;;20.88;100.00;99751.02;1721371;81;21038;-55
2022/07/08 09:28:38;;;;;;;0.23;0.10;;;;;;;20.90;100.00;99757.72;1721579;81;22209;-55
2022/07/08 09:31:07;;;;;;;0.30;0.10;;;;;;;20.82;100.00;99758.42;1719604;81;21667;-54
2022/07/08 09:33:34;;;;;;;0.20;0.10;;;;;;;20.74;100.00;99759.12;1727206;81;21042;-53
2022/07/08 09:36:01;;;;;;;1.55;0.20;;;;;;;20.69;100.00;99759.14;1722165;81;21488;-53
2022/07/08 09:38:30;;;;;;;1.37;0.10;;;;;;;20.66;100.00;99757.58;1725633;81;21065;-54
2022/07/08 09:41:04;;;;;;;0.30;0.10;;;;;;;20.68;100.00;99750.07;1724233;81;21288;-54
2022/07/08 09:43:33;;;;;;;0.60;0.10;;;;;;;20.70;100.00;99754.91;1730976;81;21054;-55
2022/07/08 09:46:07;;;;;;;0.55;0.10;;;;;;;20.70;100.00;99756.28;1720576;82;21409;-55
2022/07/08 09:48:34;;;;;;;1.70;0.10;;;;;;;20.75;100.00;99760.85;1721855;81;21082;-53
2022/07/08 09:51:07;;;;;;;0.10;0.00;;;;;;;20.82;100.00;99747.48;1720518;81;21030;-53
2022/07/08 09:53:30;;;;;;;0.50;0.17;;;;;;;20.90;100.00;99747.64;1715432;81;21134;-55
2022/07/08 09:55:58;;;;;;;2.50;0.15;;;;;;;20.99;100.00;99742.70;1719426;81;21742;-55
2022/07/08 09:58:28;;;;;;;1.17;0.10;;;;;;;21.07;100.00;99746.11;1716755;81;21044;-55
2022/07/08 10:00:57;;;;;;;0.62;0.10;;;;;;;21.14;100.00;99747.27;1728415;81;21119;-54
2022/07/08 10:03:24;;;;;;;0.00;0.00;;;;;;;21.17;100.00;99751.14;1722528;81;21532;-52
2022/07/08 10:05:50;;;;;;;0.23;0.10;;;;;;;21.15;100.00;99740.29;1715768;81;22180;-54
2022/07/08 10:08:18;;;;;;;0.10;0.10;;;;;;;21.18;100.00;99750.63;1713097;81;21002;-53
2022/07/08 10:10:46;;;;;;;0.20;0.10;;;;;;;21.25;100.00;99743.08;1718857;81;21529;-54
2022/07/08 10:13:14;;;;;;;1.47;0.10;;;;;;;21.35;100.00;99749.41;1722859;81;21024;-54
2022/07/08 10:15:41;;;;;;;0.70;0.10;;;;;;;21.48;100.00;99750.52;1717858;81;22198;-54
2022/07/08 10:18:22;;;;;;;0.33;0.10;;;;;;;21.56;100.00;99752.03;1693587;81;21838;-54
2022/07/08 10:20:56;;;;;;;0.28;0.10;;;;;;;21.55;100.00;99753.03;1671187;83;21130;-55
2022/07/08 10:23:26;;;;;;;;;;;;;;;21.55;100.00;99753.03;1721463;81;21032;-55
2022/07/08 10:25:53;;;;;;;0.10;0.10;;;;;;;21.59;100.00;99758.60;1726901;81;20206;-55
2022/07/08 10:28:21;;;;;;;0.70;0.10;;;;;;;21.61;100.00;99746.11;1686713;81;20883;-55
2022/07/08 10:30:52;;;;;;;0.75;0.10;;;;;;;21.61;100.00;99751.58;1663545;81;21707;-55
2022/07/08 10:33:25;;;;;;;0.23;0.10;;;;;;;21.61;100.00;99759.30;1717469;81;21350;-54
2022/07/08 10:36:06;;;;;;;0.50;0.10;;;;;;;21.60;100.00;99748.52;1714280;81;21737;-54
2022/07/08 10:38:39;;;;;;;0.20;0.10;;;;;;;21.58;100.00;99745.91;1691215;81;21422;-54
2022/07/08 10:41:09;;;;;;;0.30;0.10;;;;;;;21.57;100.00;99748.79;1714096;81;20991;-53
2022/07/08 10:43:52;;;;;;;0.10;0.10;;;;;;;21.57;100.00;99753.77;1717662;81;21069;-55
2022/07/08 10:46:20;;;;;;;0.40;0.10;;;;;;;21.54;100.00;99738.98;1698415;81;21043;-54
2022/07/08 10:48:59;;;;;;;0.23;0.10;;;;;;;21.51;100.00;99733.81;1713220;81;21504;-54
2022/07/08 10:51:32;;;;;;;0.35;0.13;;;;;;;21.51;100.00;99741.52;1717511;81;20975;-54
2022/07/08 10:54:01;;;;;;;0.30;0.13;;;;;;;21.50;100.00;99740.29;1722104;81;21206;-54
2022/07/08 10:56:59;;;;;;;0.50;0.10;;;;;;;21.54;100.00;99740.34;1721598;81;21550;-54
2022/07/08 10:59:33;;;;;;;0.70;0.20;;;;;;;21.59;100.00;99749.52;1722328;81;20940;-55
2022/07/08 11:02:15;;;;;;;0.40;0.20;;;;;;;21.67;100.00;99739.57;1719558;81;20896;-54
2022/07/08 11:04:45;;;;;;;0.40;0.20;;;;;;;21.77;100.00;99730.84;1698334;81;20876;-53
2022/07/08 11:07:26;;;;;;;0.37;0.10;;;;;;;21.93;100.00;99731.62;1717500;81;21062;-55
2022/07/08 11:10:06;;;;;;;1.70;0.20;;;;;;;22.05;100.00;99726.84;1716622;81;22498;-56
2022/07/08 11:12:45;;;;;;;0.10;0.10;;;;;;;22.14;100.00;99730.95;1719611;81;21089;-56
2022/07/08 11:15:13;;;;;;;1.47;0.10;;;;;;;22.23;100.00;99720.46;1714612;81;21235;-56
2022/07/08 11:17:41;;;;;;;0.13;0.13;;;;;;;22.30;100.00;99723.97;1716565;81;22383;-55
2022/07/08 11:20:11;;;;;;;0.25;0.15;;;;;;;22.29;100.00;99724.47;1711799;81;21090;-57
2022/07/08 11:22:40;;;;;;;2.15;0.20;;;;;;;22.25;100.00;99734.89;1718885;81;21133;-56
2022/07/08 11:25:11;;;;;;;0.20;0.10;;;;;;;22.23;100.00;99727.82;1716318;81;20987;-56
2022/07/08 11:27:39;;;;;;;0.30;0.20;;;;;;;22.22;100.00;99722.84;1719557;81;21544;-56
2022/07/08 11:30:12;;;;;;;0.30;0.20;;;;;;;22.29;100.00;99720.90;1718332;81;21121;-55